Time;durP1;ratioP1;P1;durP2;ratioP2;P2;SDS_P1;SDS_P2;PMS_P1;PMS_P2;Temp;Humidity;BMP_temperature;BMP_pressure;BME280_temperature;BME280_humidity;BME280_pressure;Samples;Min_cycle;Max_cycle;Signal;HPM_P1;HPM_P2
2022/09/28 00:01:57;;;;;;;10.98;7.85;;;8.70;91.70;;;;;;5114495;28;20126;-78
2022/09/28 00:04:23;;;;;;;7.82;6.85;;;8.70;91.80;;;;;;5115920;28;20104;-78
2022/09/28 00:06:49;;;;;;;14.00;8.65;;;8.70;91.60;;;;;;5115873;28;20321;-78
2022/09/28 00:09:16;;;;;;;10.77;8.40;;;8.80;91.40;;;;;;5115780;28;20044;-78
2022/09/28 00:11:45;;;;;;;27.40;16.48;;;8.70;91.80;;;;;;5116029;28;20364;-77
2022/09/28 00:14:11;;;;;;;18.73;10.90;;;8.70;91.60;;;;;;5115797;28;20044;-78
2022/09/28 00:16:40;;;;;;;24.75;15.23;;;8.70;92.00;;;;;;5098634;28;20068;-78
2022/09/28 00:19:07;;;;;;;22.80;15.40;;;8.70;91.90;;;;;;5115918;28;20110;-78
2022/09/28 00:21:35;;;;;;;47.38;29.27;;;8.70;91.90;;;;;;5115752;28;20440;-78
2022/09/28 00:24:11;;;;;;;38.03;23.38;;;8.70;91.90;;;;;;5115494;28;20445;-77
2022/09/28 00:26:55;;;;;;;43.58;24.95;;;8.70;92.00;;;;;;5115507;28;20047;-78
2022/09/28 00:29:28;;;;;;;47.75;26.27;;;8.80;91.90;;;;;;5115770;28;20446;-77
2022/09/28 00:31:58;;;;;;;25.53;16.17;;;8.80;91.90;;;;;;5098377;28;20129;-77
2022/09/28 00:34:32;;;;;;;20.00;12.70;;;8.80;91.90;;;;;;5115592;28;20285;-76
2022/09/28 00:36:59;;;;;;;31.92;19.17;;;8.80;92.20;;;;;;5098392;28;20039;-75
2022/09/28 00:39:25;;;;;;;41.20;22.88;;;8.80;92.40;;;;;;5115104;28;20177;-76
2022/09/28 00:41:52;;;;;;;51.50;28.58;;;8.80;92.50;;;;;;5114960;28;20036;-76
2022/09/28 00:44:35;;;;;;;47.22;28.27;;;8.80;92.30;;;;;;5115170;28;20043;-76
2022/09/28 00:47:11;;;;;;;31.73;19.08;;;8.80;92.30;;;;;;5098403;28;20388;-75
2022/09/28 00:49:45;;;;;;;40.97;22.73;;;8.80;92.20;;;;;;5115078;28;20043;-75
2022/09/28 00:52:15;;;;;;;24.88;16.67;;;8.80;92.20;;;;;;5114990;28;20039;-76
2022/09/28 00:54:44;;;;;;;21.13;13.27;;;8.80;92.60;;;;;;5115000;28;20108;-77
2022/09/28 00:57:10;;;;;;;21.83;13.10;;;8.80;92.60;;;;;;5097996;28;20040;-77
2022/09/28 00:59:36;;;;;;;36.63;23.05;;;8.90;92.60;;;;;;5115132;28;20487;-76
2022/09/28 01:02:02;;;;;;;15.77;11.93;;;8.90;92.60;;;;;;5114973;28;20075;-76
2022/09/28 01:04:29;;;;;;;18.20;11.43;;;8.90;92.60;;;;;;5115030;28;20356;-77
2022/09/28 01:06:56;;;;;;;22.25;13.82;;;8.90;92.50;;;;;;5081032;28;20035;-76
2022/09/28 01:09:24;;;;;;;21.08;14.02;;;8.90;92.40;;;;;;5114445;28;20035;-76
2022/09/28 01:11:50;;;;;;;12.50;10.32;;;8.90;92.70;;;;;;5097232;28;20047;-75
2022/09/28 01:14:17;;;;;;;20.13;13.00;;;8.80;92.70;;;;;;5114909;28;20372;-77
2022/09/28 01:17:02;;;;;;;16.83;11.07;;;8.90;92.60;;;;;;5114801;28;20040;-78
2022/09/28 01:19:46;;;;;;;19.08;12.75;;;8.80;92.60;;;;;;5114408;28;20407;-77
2022/09/28 01:22:30;;;;;;;15.88;12.55;;;8.80;92.60;;;;;;5097486;28;20104;-75
2022/09/28 01:24:56;;;;;;;58.90;33.55;;;8.80;92.50;;;;;;5097464;28;20035;-76
2022/09/28 01:27:25;;;;;;;20.58;14.13;;;8.80;92.30;;;;;;5114571;28;20053;-76
2022/09/28 01:29:54;;;;;;;17.60;13.23;;;8.80;92.60;;;;;;5114272;28;20118;-77
2022/09/28 01:32:47;;;;;;;104.88;56.25;;;8.80;92.50;;;;;;5114142;28;20097;-77
2022/09/28 01:35:38;;;;;;;36.55;20.00;;;8.80;92.30;;;;;;5114540;28;20138;-76
2022/09/28 01:38:06;;;;;;;46.22;25.35;;;8.80;92.30;;;;;;5113865;28;20532;-77
2022/09/28 01:40:35;;;;;;;32.92;21.15;;;8.80;92.50;;;;;;5114057;28;20082;-76
2022/09/28 01:43:25;;;;;;;14.07;11.35;;;8.80;92.40;;;;;;5113905;28;20496;-77
2022/09/28 01:46:12;;;;;;;84.00;47.20;;;8.80;92.40;;;;;;5085403;28;20052;-77
2022/09/28 01:48:49;;;;;;;42.42;23.73;;;8.80;92.50;;;;;;5113976;28;20043;-77
2022/09/28 01:51:23;;;;;;;29.23;18.33;;;8.80;92.40;;;;;;5113948;28;20035;-76
2022/09/28 01:53:54;;;;;;;16.90;11.15;;;8.80;92.60;;;;;;5097165;28;20077;-76
2022/09/28 01:56:28;;;;;;;26.80;15.30;;;8.80;92.40;;;;;;5113841;28;20488;-76
2022/09/28 01:59:05;;;;;;;14.52;10.15;;;8.80;92.40;;;;;;5113801;28;20039;-76
2022/09/28 02:01:46;;;;;;;15.02;11.27;;;8.80;92.50;;;;;;5113858;28;20417;-76
2022/09/28 02:04:38;;;;;;;46.08;26.20;;;8.80;92.40;;;;;;5113657;28;20510;-76
2022/09/28 02:07:13;;;;;;;19.42;13.32;;;8.80;92.40;;;;;;5102566;28;20517;-77
2022/09/28 02:09:46;;;;;;;17.10;10.90;;;8.80;92.40;;;;;;5113511;28;20088;-77
2022/09/28 02:12:19;;;;;;;32.83;20.63;;;8.90;92.40;;;;;;5113424;28;20054;-76
2022/09/28 02:14:48;;;;;;;24.25;14.75;;;8.90;92.40;;;;;;5113424;28;20043;-76
2022/09/28 02:17:15;;;;;;;19.48;13.75;;;8.90;92.40;;;;;;5096626;28;20068;-77
2022/09/28 02:19:41;;;;;;;25.25;14.82;;;8.90;92.40;;;;;;5113305;28;20046;-77
2022/09/28 02:22:30;;;;;;;21.30;14.45;;;9.00;92.40;;;;;;5113051;28;20043;-77
2022/09/28 02:25:08;;;;;;;20.42;12.05;;;9.00;92.30;;;;;;5112924;28;20042;-76
2022/09/28 02:27:52;;;;;;;17.23;12.30;;;9.00;92.30;;;;;;5113168;28;20047;-76
2022/09/28 02:30:18;;;;;;;16.77;11.13;;;9.00;92.40;;;;;;5113184;28;20039;-77
2022/09/28 02:32:47;;;;;;;201.90;116.85;;;9.00;92.50;;;;;;5112961;28;20043;-77
2022/09/28 02:35:16;;;;;;;75.07;43.40;;;9.00;92.40;;;;;;5113237;28;20037;-76
2022/09/28 02:37:43;;;;;;;19.98;15.13;;;9.00;92.30;;;;;;5096046;28;20078;-77
2022/09/28 02:40:17;;;;;;;89.88;59.67;;;9.00;92.40;;;;;;5113135;28;20047;-77
2022/09/28 02:42:47;;;;;;;39.63;26.38;;;9.00;92.40;;;;;;5112923;28;20116;-77
2022/09/28 02:45:37;;;;;;;13.68;9.77;;;9.00;92.40;;;;;;5112900;28;20035;-77
2022/09/28 02:48:27;;;;;;;111.35;71.20;;;9.00;92.40;;;;;;5112748;28;20545;-76
2022/09/28 02:51:17;;;;;;;35.80;24.70;;;9.00;92.50;;;;;;5112871;28;20035;-76
2022/09/28 02:53:57;;;;;;;37.25;25.13;;;9.00;92.40;;;;;;5113007;28;20395;-76
2022/09/28 02:56:44;;;;;;;29.60;18.67;;;9.00;92.40;;;;;;5096026;28;20503;-76
2022/09/28 02:59:28;;;;;;;41.70;26.33;;;9.00;92.40;;;;;;5095700;28;20039;-76
2022/09/28 03:02:04;;;;;;;15.90;11.05;;;9.00;92.30;;;;;;5112421;28;20096;-77
2022/09/28 03:04:41;;;;;;;63.30;33.38;;;9.00;92.30;;;;;;5112562;28;20040;-76
2022/09/28 03:07:19;;;;;;;36.83;20.77;;;9.00;92.30;;;;;;5112465;28;20039;-76
2022/09/28 03:09:54;;;;;;;19.15;11.57;;;9.00;92.50;;;;;;5095539;28;20562;-76
2022/09/28 03:12:22;;;;;;;27.58;15.30;;;9.00;92.50;;;;;;5112364;28;20078;-77
2022/09/28 03:15:08;;;;;;;12.95;8.05;;;8.90;92.50;;;;;;5112327;28;20044;-76
2022/09/28 03:17:34;;;;;;;10.05;7.78;;;8.80;92.60;;;;;;5112319;28;20055;-77
2022/09/28 03:20:00;;;;;;;10.30;7.88;;;8.90;92.70;;;;;;5095612;28;20043;-77
2022/09/28 03:22:25;;;;;;;11.40;7.68;;;8.90;92.60;;;;;;5095156;28;20487;-75
2022/09/28 03:24:51;;;;;;;9.75;7.43;;;8.80;92.60;;;;;;5095299;28;20032;-76
2022/09/28 03:27:17;;;;;;;9.82;7.93;;;8.90;92.70;;;;;;5112134;28;20037;-76
2022/09/28 03:29:43;;;;;;;12.93;7.72;;;8.90;92.50;;;;;;5112140;28;20046;-77
2022/09/28 03:32:08;;;;;;;9.77;6.68;;;8.90;92.40;;;;;;5112159;28;20036;-76
2022/09/28 03:34:34;;;;;;;8.93;7.20;;;8.90;92.40;;;;;;5112670;28;20043;-76
2022/09/28 03:37:00;;;;;;;11.23;8.05;;;8.90;92.40;;;;;;5116450;28;20044;-76
2022/09/28 03:39:26;;;;;;;9.02;7.07;;;8.90;92.40;;;;;;5116280;28;20083;-76
2022/09/28 03:41:51;;;;;;;9.80;6.93;;;8.80;92.60;;;;;;5116087;28;20036;-77
2022/09/28 03:44:17;;;;;;;9.73;7.40;;;8.90;92.70;;;;;;5116575;28;20048;-77
2022/09/28 03:46:43;;;;;;;10.50;7.30;;;8.90;92.70;;;;;;5099240;28;20036;-78
2022/09/28 03:49:09;;;;;;;8.07;6.40;;;8.90;92.60;;;;;;5116187;28;20039;-77
2022/09/28 03:51:34;;;;;;;10.25;6.63;;;8.90;92.50;;;;;;5116283;28;20422;-76
2022/09/28 03:54:00;;;;;;;11.32;7.03;;;9.00;92.60;;;;;;5099162;28;20040;-76
2022/09/28 03:56:26;;;;;;;11.48;7.30;;;8.90;92.60;;;;;;5115998;28;20123;-77
2022/09/28 03:58:51;;;;;;;9.57;7.80;;;8.90;92.60;;;;;;5116030;28;20372;-77
2022/09/28 04:01:17;;;;;;;10.90;7.78;;;9.00;92.70;;;;;;5115907;28;20043;-76
2022/09/28 04:03:43;;;;;;;10.23;7.25;;;9.00;92.70;;;;;;5115878;28;20054;-78
2022/09/28 04:06:10;;;;;;;9.80;6.80;;;9.00;92.80;;;;;;5115982;28;20487;-76
2022/09/28 04:08:35;;;;;;;8.20;6.00;;;9.00;92.70;;;;;;5115787;28;20076;-78
2022/09/28 04:11:01;;;;;;;11.25;6.20;;;9.00;92.70;;;;;;5098860;28;20032;-78
2022/09/28 04:13:28;;;;;;;8.73;6.07;;;9.00;92.60;;;;;;5115648;28;20491;-77
2022/09/28 04:15:55;;;;;;;7.95;5.78;;;9.00;92.60;;;;;;5115683;28;20051;-78
2022/09/28 04:18:22;;;;;;;8.68;5.47;;;8.90;92.50;;;;;;5115595;28;20039;-76
2022/09/28 04:20:56;;;;;;;7.93;6.35;;;8.90;92.50;;;;;;5115441;28;20495;-76
2022/09/28 04:23:21;;;;;;;;;;;9.00;92.40;;;;;;5115910;28;20047;-77
2022/09/28 04:25:51;;;;;;;6.70;5.30;;;8.90;92.50;;;;;;5098451;28;19916;-77
2022/09/28 04:31:00;;;;;;;6.88;5.10;;;8.80;92.50;;;;;;5115103;28;20050;-76
2022/09/28 04:33:26;;;;;;;6.13;4.90;;;8.80;92.50;;;;;;5081517;28;20442;-76
2022/09/28 04:35:52;;;;;;;8.20;5.88;;;8.80;92.40;;;;;;5098326;28;20110;-77
2022/09/28 04:38:17;;;;;;;6.72;4.70;;;8.80;92.40;;;;;;5114990;28;20063;-76
2022/09/28 04:40:43;;;;;;;5.75;4.57;;;8.80;92.30;;;;;;5115154;28;20501;-76
2022/09/28 04:43:09;;;;;;;7.47;4.80;;;8.70;92.20;;;;;;5098108;28;20044;-77
2022/09/28 04:45:34;;;;;;;6.03;4.80;;;8.70;92.30;;;;;;5115102;28;20118;-76
2022/09/28 04:48:00;;;;;;;8.00;4.72;;;8.80;92.30;;;;;;5097728;28;20039;-77
2022/09/28 04:50:26;;;;;;;6.03;4.00;;;8.70;92.30;;;;;;5115194;28;20043;-75
2022/09/28 04:52:52;;;;;;;5.25;4.65;;;8.70;92.40;;;;;;5087964;28;20044;-76
2022/09/28 04:55:19;;;;;;;8.65;4.93;;;8.70;92.30;;;;;;5094433;28;20127;-79
2022/09/28 04:57:45;;;;;;;10.90;6.45;;;8.70;92.50;;;;;;5109203;28;20108;-78
2022/09/28 05:00:11;;;;;;;10.02;6.90;;;8.60;92.60;;;;;;5097834;28;20039;-78
2022/09/28 05:02:37;;;;;;;12.30;7.60;;;8.60;92.40;;;;;;5114894;28;20047;-78
2022/09/28 05:05:03;;;;;;;8.70;6.88;;;8.60;92.40;;;;;;5114653;28;20040;-78
2022/09/28 05:07:30;;;;;;;10.50;7.30;;;8.60;92.40;;;;;;5097811;28;20044;-79
2022/09/28 05:09:55;;;;;;;9.35;7.10;;;8.50;92.30;;;;;;5114896;28;20447;-77
2022/09/28 05:12:21;;;;;;;9.98;7.53;;;8.50;92.30;;;;;;5114543;28;20050;-81
2022/09/28 05:14:47;;;;;;;8.73;7.47;;;8.50;92.40;;;;;;5097655;28;20051;-77
2022/09/28 05:17:12;;;;;;;10.73;7.45;;;8.40;92.50;;;;;;5097833;28;20054;-78
2022/09/28 05:19:38;;;;;;;6.95;5.43;;;8.40;92.40;;;;;;5114629;28;20043;-78
2022/09/28 05:22:05;;;;;;;7.45;5.03;;;8.30;92.60;;;;;;5114245;28;20398;-78
2022/09/28 05:24:30;;;;;;;7.57;5.28;;;8.30;92.80;;;;;;5080834;28;20050;-76
2022/09/28 05:26:56;;;;;;;7.43;4.75;;;8.20;93.10;;;;;;5097160;28;20035;-76
2022/09/28 05:29:22;;;;;;;5.55;5.00;;;8.20;93.10;;;;;;5114328;28;20067;-76
2022/09/28 05:31:48;;;;;;;7.05;5.85;;;8.20;93.20;;;;;;5113924;28;20118;-76
2022/09/28 05:34:14;;;;;;;10.10;8.25;;;8.20;93.10;;;;;;5113986;28;20046;-77
2022/09/28 05:36:41;;;;;;;7.50;6.00;;;8.20;92.90;;;;;;5113825;28;20036;-77
2022/09/28 05:39:08;;;;;;;7.47;5.68;;;8.20;92.80;;;;;;5114090;28;20149;-77
2022/09/28 05:41:34;;;;;;;9.15;5.60;;;8.20;92.60;;;;;;5113697;28;20241;-76
2022/09/28 05:44:00;;;;;;;9.45;5.80;;;8.20;92.60;;;;;;5113881;28;20047;-76
2022/09/28 05:46:26;;;;;;;8.48;5.88;;;8.10;92.80;;;;;;5113932;28;20039;-77
2022/09/28 05:48:53;;;;;;;11.32;7.43;;;8.10;92.90;;;;;;5096824;28;20032;-76
2022/09/28 05:51:19;;;;;;;10.32;7.30;;;8.10;93.00;;;;;;5096946;28;20044;-77
2022/09/28 05:53:45;;;;;;;7.05;5.53;;;8.10;93.10;;;;;;5096675;28;20054;-76
2022/09/28 05:56:10;;;;;;;7.03;4.07;;;8.00;93.20;;;;;;5113572;28;20040;-76
2022/09/28 05:58:36;;;;;;;7.30;4.63;;;8.00;93.40;;;;;;5111876;28;20051;-76
2022/09/28 06:01:02;;;;;;;5.93;4.57;;;8.00;93.20;;;;;;5113560;28;20108;-76
2022/09/28 06:03:27;;;;;;;8.70;4.82;;;8.10;93.20;;;;;;5113405;28;20043;-76
2022/09/28 06:05:53;;;;;;;6.15;3.95;;;8.00;93.10;;;;;;5113542;28;20046;-76
2022/09/28 06:08:19;;;;;;;5.05;3.53;;;8.00;93.30;;;;;;5113710;28;20043;-76
2022/09/28 06:10:45;;;;;;;6.13;4.40;;;8.00;93.30;;;;;;5096626;28;20450;-76
2022/09/28 06:13:10;;;;;;;7.05;4.50;;;8.00;93.30;;;;;;5113418;28;20126;-75
2022/09/28 06:15:38;;;;;;;8.85;5.18;;;8.00;93.50;;;;;;5096324;28;20043;-77
2022/09/28 06:18:10;;;;;;;11.57;7.93;;;8.00;93.60;;;;;;5113404;28;20074;-75
2022/09/28 06:20:41;;;;;;;10.25;6.45;;;8.00;93.50;;;;;;5096151;28;20044;-75
2022/09/28 06:23:08;;;;;;;13.60;7.63;;;8.10;93.50;;;;;;5113293;28;20044;-75
2022/09/28 06:25:33;;;;;;;12.18;7.32;;;8.10;93.60;;;;;;5113109;28;20043;-75
2022/09/28 06:28:02;;;;;;;11.52;6.85;;;8.10;93.50;;;;;;5112694;28;20035;-76
2022/09/28 06:30:29;;;;;;;8.13;4.97;;;8.10;93.50;;;;;;5096167;28;20365;-76
2022/09/28 06:32:57;;;;;;;8.63;6.75;;;8.10;93.50;;;;;;5113222;28;20048;-75
2022/09/28 06:35:25;;;;;;;7.45;4.03;;;8.20;93.60;;;;;;5095614;28;20043;-76
2022/09/28 06:37:52;;;;;;;5.50;4.00;;;8.20;93.60;;;;;;5112551;28;20047;-76
2022/09/28 06:40:18;;;;;;;9.55;5.35;;;8.30;93.60;;;;;;5113153;28;20391;-76
2022/09/28 06:42:52;;;;;;;9.10;5.47;;;8.30;93.40;;;;;;5112666;28;20044;-75
2022/09/28 06:45:24;;;;;;;5.80;4.55;;;8.40;93.30;;;;;;5112751;28;20181;-76
2022/09/28 06:47:55;;;;;;;6.80;3.53;;;8.40;93.30;;;;;;5112669;28;20391;-75
2022/09/28 06:50:21;;;;;;;3.47;2.97;;;8.50;93.30;;;;;;5112749;28;20085;-75
2022/09/28 06:52:50;;;;;;;5.85;2.95;;;8.50;93.30;;;;;;5112672;28;20051;-76
2022/09/28 06:55:16;;;;;;;5.82;3.42;;;8.60;93.20;;;;;;5112454;28;20076;-75
2022/09/28 06:57:42;;;;;;;5.95;4.80;;;8.60;93.30;;;;;;5112196;28;20043;-76
2022/09/28 07:00:08;;;;;;;7.38;4.38;;;8.70;93.40;;;;;;5112364;28;20043;-75
2022/09/28 07:02:33;;;;;;;7.93;4.65;;;8.80;93.30;;;;;;5112201;28;20039;-76
2022/09/28 07:04:59;;;;;;;4.80;3.13;;;8.80;93.20;;;;;;5112168;28;20040;-76
2022/09/28 07:07:25;;;;;;;2.63;1.80;;;8.90;93.20;;;;;;5112487;28;20032;-76
2022/09/28 07:09:54;;;;;;;2.83;2.30;;;8.90;93.00;;;;;;5112184;28;20078;-76
2022/09/28 07:12:23;;;;;;;6.28;2.40;;;9.00;93.10;;;;;;5095072;28;20479;-76
2022/09/28 07:14:54;;;;;;;6.38;2.78;;;9.10;93.10;;;;;;5112078;28;20075;-76
2022/09/28 07:17:21;;;;;;;6.18;2.78;;;9.10;93.00;;;;;;5095652;28;20402;-76
2022/09/28 07:19:51;;;;;;;4.78;2.63;;;9.10;93.00;;;;;;5112097;28;20050;-76
2022/09/28 07:22:19;;;;;;;3.63;2.20;;;9.20;93.00;;;;;;5112125;28;20043;-76
2022/09/28 07:24:47;;;;;;;3.67;2.72;;;9.30;93.00;;;;;;5112040;28;20031;-76
2022/09/28 07:27:12;;;;;;;3.75;2.10;;;9.30;93.10;;;;;;5111906;28;20039;-75
2022/09/28 07:29:38;;;;;;;5.15;2.72;;;9.30;93.10;;;;;;5111868;28;20039;-77
2022/09/28 07:32:04;;;;;;;5.78;2.22;;;9.40;92.90;;;;;;5111853;28;20126;-77
2022/09/28 07:34:29;;;;;;;3.70;2.35;;;9.50;92.80;;;;;;5095060;28;20039;-77
2022/09/28 07:36:57;;;;;;;3.95;1.88;;;9.60;92.70;;;;;;5112123;28;20082;-76
2022/09/28 07:39:23;;;;;;;4.63;2.00;;;9.70;92.90;;;;;;5094408;28;20055;-76
2022/09/28 07:41:49;;;;;;;2.67;1.70;;;9.70;92.70;;;;;;5078205;28;20043;-76
2022/09/28 07:44:16;;;;;;;3.97;1.67;;;9.80;92.50;;;;;;5111825;28;20044;-76
2022/09/28 07:46:42;;;;;;;3.42;1.42;;;9.90;92.40;;;;;;5095205;28;20043;-75
2022/09/28 07:49:08;;;;;;;5.85;2.10;;;9.90;92.30;;;;;;5112050;28;20036;-75
2022/09/28 07:51:34;;;;;;;5.80;2.13;;;10.00;92.30;;;;;;5094910;28;20500;-75
2022/09/28 07:53:59;;;;;;;5.07;2.15;;;10.10;92.20;;;;;;5111873;28;20040;-76
2022/09/28 07:56:25;;;;;;;3.72;2.08;;;10.20;92.10;;;;;;5111543;28;20101;-76
2022/09/28 07:58:51;;;;;;;6.05;1.63;;;10.30;91.90;;;;;;5111661;28;20468;-76
2022/09/28 08:01:18;;;;;;;6.93;1.60;;;10.40;91.70;;;;;;5111591;28;20075;-76
2022/09/28 08:03:44;;;;;;;2.92;1.50;;;10.50;91.30;;;;;;5111413;28;20044;-76
2022/09/28 08:06:11;;;;;;;4.38;1.70;;;10.60;91.10;;;;;;5111826;28;20081;-76
2022/09/28 08:08:43;;;;;;;4.13;1.60;;;10.70;90.90;;;;;;5111251;28;20047;-76
2022/09/28 08:11:13;;;;;;;7.40;2.05;;;10.80;90.80;;;;;;5095713;28;20105;-77
2022/09/28 08:13:39;;;;;;;4.10;1.50;;;10.90;90.80;;;;;;5111528;28;20048;-77
2022/09/28 08:16:07;;;;;;;6.60;1.65;;;11.00;90.60;;;;;;5111389;28;20043;-76
2022/09/28 08:18:34;;;;;;;2.55;1.00;;;11.10;90.30;;;;;;5111567;28;20048;-77
2022/09/28 08:23:48;;;;;;;4.10;1.75;;;11.30;89.50;;;;;;5114884;28;20086;-77
2022/09/28 08:26:14;;;;;;;5.22;2.10;;;11.40;89.10;;;;;;5098790;28;20071;-77
2022/09/28 08:28:42;;;;;;;3.72;1.15;;;11.50;89.10;;;;;;5115555;28;20035;-76
2022/09/28 08:31:08;;;;;;;1.88;1.13;;;11.60;88.40;;;;;;5098734;28;20096;-77
2022/09/28 08:33:34;;;;;;;2.97;1.10;;;11.70;88.40;;;;;;5115200;28;20051;-77
2022/09/28 08:36:01;;;;;;;3.88;0.88;;;11.80;88.30;;;;;;5115522;28;20479;-76
2022/09/28 08:38:30;;;;;;;6.03;1.70;;;11.90;88.10;;;;;;5115021;28;20060;-77
2022/09/28 08:41:08;;;;;;;4.93;1.10;;;12.00;87.70;;;;;;5097965;28;20072;-77
2022/09/28 08:43:57;;;;;;;5.32;1.20;;;12.00;87.00;;;;;;5115091;28;20051;-77
2022/09/28 08:46:34;;;;;;;2.67;0.80;;;12.10;86.70;;;;;;5114959;28;20032;-77
2022/09/28 08:49:26;;;;;;;1.98;0.60;;;12.20;86.40;;;;;;5114926;28;20063;-77
2022/09/28 08:52:19;;;;;;;2.55;0.77;;;12.30;85.30;;;;;;5114993;28;20127;-77
2022/09/28 08:55:12;;;;;;;4.78;1.00;;;12.40;84.10;;;;;;5097828;28;20036;-76
2022/09/28 08:57:52;;;;;;;1.98;0.80;;;12.50;83.60;;;;;;5114698;28;20495;-77
2022/09/28 09:00:44;;;;;;;1.73;0.30;;;12.50;83.70;;;;;;5114717;28;20035;-76
2022/09/28 09:03:16;;;;;;;1.63;0.40;;;12.70;83.00;;;;;;5114750;28;20043;-77
2022/09/28 09:05:44;;;;;;;2.55;1.10;;;12.80;83.00;;;;;;5114806;28;20388;-77
2022/09/28 09:08:40;;;;;;;2.83;0.47;;;12.90;82.70;;;;;;5114727;28;20035;-77
2022/09/28 09:11:17;;;;;;;2.17;0.55;;;13.00;81.60;;;;;;5097240;28;20039;-76
2022/09/28 09:14:19;;;;;;;2.67;0.38;;;13.00;81.40;;;;;;5114377;28;20172;-76
2022/09/28 09:17:16;;;;;;;1.27;0.30;;;13.10;79.10;;;;;;5097571;28;20043;-76
2022/09/28 09:19:53;;;;;;;0.40;0.30;;;13.20;76.90;;;;;;5097747;28;20040;-76
2022/09/28 09:22:44;;;;;;;1.02;0.30;;;13.20;77.50;;;;;;5097113;28;20040;-78
2022/09/28 09:25:27;;;;;;;2.55;0.60;;;13.40;75.60;;;;;;5114606;28;20101;-78
2022/09/28 09:28:02;;;;;;;1.63;0.63;;;13.40;76.50;;;;;;5114085;28;20101;-77
2022/09/28 09:30:39;;;;;;;1.05;0.38;;;13.50;76.20;;;;;;5114257;28;20042;-77
2022/09/28 09:33:37;;;;;;;1.80;0.40;;;13.60;76.70;;;;;;5114086;28;20050;-77
2022/09/28 09:36:34;;;;;;;0.82;0.45;;;13.70;76.40;;;;;;5114245;28;20050;-77
2022/09/28 09:39:28;;;;;;;2.50;0.50;;;13.80;76.40;;;;;;5113995;28;20059;-77
2022/09/28 09:42:14;;;;;;;1.92;0.38;;;13.90;73.90;;;;;;5113935;28;20040;-78
2022/09/28 09:45:12;;;;;;;1.20;0.30;;;14.00;73.70;;;;;;5114277;28;20047;-77
2022/09/28 09:47:48;;;;;;;1.15;0.30;;;14.00;73.20;;;;;;5113939;28;20048;-77
2022/09/28 09:50:24;;;;;;;1.88;0.40;;;14.20;74.00;;;;;;5114151;28;20042;-77
2022/09/28 09:52:58;;;;;;;0.70;0.30;;;14.20;72.50;;;;;;5096982;28;20035;-77
2022/09/28 09:55:33;;;;;;;1.23;0.40;;;14.30;72.00;;;;;;5114052;28;20046;-77
2022/09/28 09:58:15;;;;;;;0.82;0.40;;;14.40;72.10;;;;;;5114003;28;20392;-77
2022/09/28 10:00:45;;;;;;;3.22;0.30;;;14.50;71.80;;;;;;5113861;28;20043;-77
2022/09/28 10:03:18;;;;;;;1.13;0.70;;;14.50;72.40;;;;;;5113548;28;20479;-77
2022/09/28 10:05:56;;;;;;;2.25;0.30;;;14.50;72.10;;;;;;5113867;28;20099;-77
2022/09/28 10:08:24;;;;;;;1.83;0.60;;;14.60;72.20;;;;;;5113543;28;20555;-77
2022/09/28 10:11:15;;;;;;;2.20;0.60;;;14.80;72.70;;;;;;5113382;28;20039;-77
2022/09/28 10:13:43;;;;;;;1.17;0.40;;;15.00;72.90;;;;;;5113359;28;20506;-77
2022/09/28 10:16:09;;;;;;;0.63;0.40;;;15.10;71.10;;;;;;5096686;28;20042;-77
2022/09/28 10:18:36;;;;;;;0.30;0.20;;;15.00;70.00;;;;;;5113677;28;20043;-77
2022/09/28 10:21:02;;;;;;;0.95;0.30;;;15.00;69.30;;;;;;5113206;28;20039;-77
2022/09/28 10:23:32;;;;;;;2.95;0.40;;;15.10;68.90;;;;;;5113158;28;20050;-77
2022/09/28 10:26:22;;;;;;;2.25;0.50;;;15.20;69.30;;;;;;5113191;28;20046;-77
2022/09/28 10:28:55;;;;;;;0.40;0.30;;;15.40;69.20;;;;;;5096235;28;20031;-77
2022/09/28 10:31:34;;;;;;;3.03;0.50;;;15.50;69.10;;;;;;5113172;28;20127;-77
2022/09/28 10:34:00;;;;;;;1.17;0.30;;;15.40;68.30;;;;;;5113147;28;20495;-77
2022/09/28 10:36:27;;;;;;;1.63;0.70;;;15.30;68.60;;;;;;5113309;28;20039;-77
2022/09/28 10:38:54;;;;;;;1.60;0.50;;;15.20;68.60;;;;;;5112785;28;20056;-77
2022/09/28 10:41:21;;;;;;;0.55;0.30;;;15.10;69.20;;;;;;5112794;28;20411;-77
2022/09/28 10:44:04;;;;;;;1.30;0.30;;;15.00;69.00;;;;;;5112724;28;20051;-77
2022/09/28 10:46:32;;;;;;;0.85;0.40;;;15.00;68.70;;;;;;5112602;28;20081;-77
2022/09/28 10:49:14;;;;;;;2.42;0.40;;;15.20;68.70;;;;;;5112756;28;20071;-77
2022/09/28 10:51:43;;;;;;;1.75;0.40;;;15.40;67.60;;;;;;5112692;28;20036;-77
2022/09/28 10:54:24;;;;;;;1.65;0.30;;;15.70;67.60;;;;;;5095682;28;20123;-77
2022/09/28 10:56:51;;;;;;;0.43;0.20;;;16.00;66.50;;;;;;5112617;28;20116;-77
2022/09/28 10:59:29;;;;;;;0.77;0.25;;;16.30;65.40;;;;;;5095666;28;20047;-77
2022/09/28 11:02:00;;;;;;;0.82;0.30;;;16.50;63.80;;;;;;5095454;28;20043;-77
2022/09/28 11:04:29;;;;;;;0.80;0.30;;;16.50;62.70;;;;;;5112640;28;20126;-77
2022/09/28 11:06:58;;;;;;;1.15;0.30;;;16.30;63.20;;;;;;5112433;28;20064;-77
2022/09/28 11:09:32;;;;;;;0.20;0.20;;;16.00;62.40;;;;;;5112448;28;20043;-77
2022/09/28 11:11:58;;;;;;;;;;;15.70;63.60;;;;;;5095730;28;20467;-77
2022/09/28 11:14:39;;;;;;;3.80;0.40;;;15.60;65.00;;;;;;5112315;28;19923;-77
2022/09/28 11:17:31;;;;;;;1.65;0.22;;;15.70;64.70;;;;;;5112552;28;20043;-78
2022/09/28 11:20:22;;;;;;;5.63;0.52;;;16.00;64.10;;;;;;5112286;28;20134;-77
2022/09/28 11:22:48;;;;;;;1.05;0.30;;;16.20;63.40;;;;;;5101408;28;20504;-77
2022/09/28 11:25:16;;;;;;;3.95;0.30;;;16.60;63.20;;;;;;5112466;28;20043;-77
2022/09/28 11:27:51;;;;;;;1.33;0.25;;;16.80;63.20;;;;;;5112158;28;20044;-78
2022/09/28 11:30:28;;;;;;;1.58;0.30;;;17.00;61.70;;;;;;5112170;28;20039;-78
2022/09/28 11:32:59;;;;;;;1.45;0.30;;;17.00;61.80;;;;;;5112047;28;20119;-77
2022/09/28 11:35:38;;;;;;;1.77;0.30;;;16.80;62.00;;;;;;5112463;28;20391;-78
2022/09/28 11:38:35;;;;;;;1.50;0.70;;;16.80;62.10;;;;;;5111954;28;20056;-77
2022/09/28 11:41:09;;;;;;;1.05;0.20;;;17.00;61.60;;;;;;5095061;28;20528;-77
2022/09/28 11:43:52;;;;;;;1.50;0.30;;;17.20;62.20;;;;;;5112046;28;20040;-78
2022/09/28 11:46:26;;;;;;;0.60;0.20;;;17.00;61.50;;;;;;5111941;28;20039;-77
2022/09/28 11:49:02;;;;;;;0.93;0.30;;;16.90;62.30;;;;;;5112073;28;20043;-77
2022/09/28 11:51:33;;;;;;;2.10;0.60;;;16.70;62.00;;;;;;5112163;28;20046;-78
2022/09/28 11:54:12;;;;;;;1.27;0.40;;;16.50;61.30;;;;;;5111948;28;20035;-77
2022/09/28 11:56:43;;;;;;;1.48;0.20;;;16.20;61.50;;;;;;5112838;28;20122;-77
2022/09/28 11:59:14;;;;;;;2.55;0.32;;;16.10;62.60;;;;;;5116095;28;20051;-78
2022/09/28 12:01:55;;;;;;;0.63;0.50;;;16.00;63.20;;;;;;5116194;28;20127;-77
2022/09/28 12:04:42;;;;;;;1.45;0.40;;;16.10;63.10;;;;;;5115863;28;20043;-77
2022/09/28 12:07:14;;;;;;;2.28;0.40;;;16.40;63.00;;;;;;5115843;28;20032;-77
2022/09/28 12:09:48;;;;;;;3.45;0.40;;;17.00;63.80;;;;;;5116161;28;20051;-77
2022/09/28 12:12:24;;;;;;;1.30;0.30;;;17.40;64.50;;;;;;5115760;28;20122;-77
2022/09/28 12:14:53;;;;;;;1.00;0.25;;;17.40;64.60;;;;;;5116285;28;20055;-77
2022/09/28 12:17:38;;;;;;;1.35;0.30;;;17.40;65.00;;;;;;5115771;28;20043;-77
2022/09/28 12:20:31;;;;;;;2.65;0.30;;;17.10;64.30;;;;;;5115852;28;20046;-77
2022/09/28 12:23:10;;;;;;;0.65;0.30;;;16.90;64.90;;;;;;5115405;28;20080;-76
2022/09/28 12:25:45;;;;;;;2.38;0.47;;;16.60;65.50;;;;;;5098599;28;20038;-77
2022/09/28 12:28:16;;;;;;;0.60;0.30;;;16.40;65.40;;;;;;5115523;28;20050;-76
2022/09/28 12:30:44;;;;;;;1.15;0.30;;;16.80;65.30;;;;;;5115423;28;20479;-77
2022/09/28 12:33:14;;;;;;;2.58;0.63;;;17.20;65.50;;;;;;5098707;28;20441;-78
2022/09/28 12:36:08;;;;;;;29.55;9.68;;;17.70;63.30;;;;;;5098391;28;20067;-78
2022/09/28 12:38:40;;;;;;;15.68;4.18;;;18.20;63.20;;;;;;5115169;28;20066;-79
2022/09/28 12:41:35;;;;;;;2.58;0.45;;;18.70;62.70;;;;;;5115215;28;20045;-79
2022/09/28 12:44:31;;;;;;;1.13;0.40;;;19.00;61.00;;;;;;5084078;28;20058;-79
2022/09/28 12:47:21;;;;;;;0.95;0.40;;;19.40;60.80;;;;;;5115163;28;20539;-79
2022/09/28 12:50:06;;;;;;;0.73;0.30;;;19.20;51.30;;;;;;5115368;28;20442;-78
2022/09/28 12:52:44;;;;;;;0.88;0.40;;;19.30;54.80;;;;;;5115035;28;20123;-78
2022/09/28 12:55:21;;;;;;;0.80;0.40;;;19.10;54.70;;;;;;5114968;28;20088;-77
2022/09/28 12:58:17;;;;;;;1.70;0.25;;;18.70;56.40;;;;;;5097859;28;20047;-79
2022/09/28 13:00:42;;;;;;;1.42;0.40;;;18.20;57.30;;;;;;5080576;28;20043;-78
2022/09/28 13:03:20;;;;;;;0.50;0.30;;;17.80;58.70;;;;;;5114957;28;20498;-79
2022/09/28 13:06:07;;;;;;;0.77;0.30;;;17.50;58.70;;;;;;5097946;28;20063;-78
2022/09/28 13:08:48;;;;;;;0.45;0.30;;;17.30;59.60;;;;;;5097435;28;20040;-77
2022/09/28 13:11:32;;;;;;;1.13;0.52;;;17.30;61.90;;;;;;5097528;28;20039;-78
2022/09/28 13:14:13;;;;;;;2.67;0.40;;;17.50;62.50;;;;;;5097700;28;20044;-78
2022/09/28 13:16:53;;;;;;;0.73;0.35;;;17.50;62.50;;;;;;5114511;28;20050;-79
2022/09/28 13:19:35;;;;;;;0.70;0.30;;;17.30;61.60;;;;;;5114584;28;20113;-78
2022/09/28 13:22:39;;;;;;;1.00;0.30;;;17.00;63.20;;;;;;5097400;28;20039;-78